Raymond, MN (56282)

2:52 AM CDT on April 27, 2017 (GMT -0500)
Roseland | | Change Station

Elev 1106 ft 44.94 °N, 95.11 °W | Updated 32 seconds ago

Overcast
Overcast
32.3 °F
Feels Like 32 °F
N
1.0
Wind Variable Wind from WNW
Gusts 2.0 mph

Today
High -- | Low -- °F
--% Chance of Precip.
Yesterday
High -- | Low -- °F
Precip. -- in
Pressure 29.61 in
Visibility 10.0 miles
Clouds Scattered Clouds 1500 ft
Overcast 2200 ft
Windchill 32 °F
Dew Point 30 °F
Humidity 91%
Rainfall 0.00 in
Snow Depth Not available.
6:15 AM 8:22 PM
New Moon, 1% visible
METAR KBDH 270735Z AUTO 32005KT 10SM SCT015 OVC022 00/M02 A2961 RMK AO2
Pressure 29.61 in
Visibility 10.0 miles
Clouds Scattered Clouds 1500 ft
Overcast 2200 ft
Windchill 32 °F
Dew Point 30 °F
Humidity 91%
Rainfall 0.00 in
Snow Depth Not available.
6:15 AM 8:22 PM
New Moon, 1% visible
METAR KBDH 270735Z AUTO 32005KT 10SM SCT015 OVC022 00/M02 A2961 RMK AO2

Get Severe Weather Alerts

Thanks for signing up!

Be on the lookout for a verification email in your inbox.

You'll start receiving the daily forecast at 8 AM.

×

10-Day Weather Forecast

Almanac

Astronomy

Apr. 27, 2017 Rise Set
Actual Time
Civil Twilight
Nautical Twilight
Astronomical Twilight
Moon
Length of Visible Light
Length of Day
Tomorrow will be .
, % of the Moon is Illuminated

Today's Extremes

State Highs State Lows

Community

WunderPhotos

WunderBlog® & News

Nearby

Air Quality

  Air Quality AQ Index Pollutant
Not available.

Snow Depth

Station Depth Elevation

Earthquake Activity

City Distance Mag. Time & Date
Minimum magnitude displayed is 2.5.

Coastal Water Temperatures

Place Temperature

Stations

Nearby Weather Stations

Station Location Temp. Windchill Dew Point Humidity Wind Precip. Elev Updated Type
                   

Watches & Warnings

There are currently no watches in effect.